sensor_id;sensor_type;location;lat;lon;timestamp;temperature;humidity
12370;DHT22;6249;52.128;9.986;2022-11-13T00:00:17;6.00;99.90
12370;DHT22;6249;52.128;9.986;2022-11-13T00:03:37;5.90;99.90
12370;DHT22;6249;52.128;9.986;2022-11-13T00:06:58;5.90;99.90
12370;DHT22;6249;52.128;9.986;2022-11-13T00:10:19;5.80;99.90
12370;DHT22;6249;52.128;9.986;2022-11-13T00:13:40;5.60;99.90
12370;DHT22;6249;52.128;9.986;2022-11-13T00:17:02;5.60;99.90
12370;DHT22;6249;52.128;9.986;2022-11-13T00:20:23;5.50;99.90
12370;DHT22;6249;52.128;9.986;2022-11-13T00:23:44;5.60;99.90
12370;DHT22;6249;52.128;9.986;2022-11-13T00:27:05;5.50;99.90
12370;DHT22;6249;52.128;9.986;2022-11-13T00:30:27;5.50;99.90
12370;DHT22;6249;52.128;9.986;2022-11-13T00:33:53;5.50;99.90
12370;DHT22;6249;52.128;9.986;2022-11-13T00:37:14;5.50;99.90
12370;DHT22;6249;52.128;9.986;2022-11-13T00:40:36;5.50;99.90
12370;DHT22;6249;52.128;9.986;2022-11-13T00:43:59;5.60;99.90
12370;DHT22;6249;52.128;9.986;2022-11-13T00:47:23;5.70;99.90
12370;DHT22;6249;52.128;9.986;2022-11-13T00:50:46;5.80;99.90
12370;DHT22;6249;52.128;9.986;2022-11-13T00:54:07;5.70;99.90
12370;DHT22;6249;52.128;9.986;2022-11-13T00:57:27;5.60;99.90
12370;DHT22;6249;52.128;9.986;2022-11-13T01:00:51;5.70;99.90
12370;DHT22;6249;52.128;9.986;2022-11-13T01:04:14;5.60;99.90
12370;DHT22;6249;52.128;9.986;2022-11-13T01:07:35;5.50;99.90
12370;DHT22;6249;52.128;9.986;2022-11-13T01:10:56;5.60;99.90
12370;DHT22;6249;52.128;9.986;2022-11-13T01:14:20;5.40;99.90
12370;DHT22;6249;52.128;9.986;2022-11-13T01:17:40;5.50;99.90
12370;DHT22;6249;52.128;9.986;2022-11-13T01:21:05;5.30;99.90
12370;DHT22;6249;52.128;9.986;2022-11-13T01:24:26;5.30;99.90
12370;DHT22;6249;52.128;9.986;2022-11-13T01:27:49;5.30;99.90
12370;DHT22;6249;52.128;9.986;2022-11-13T01:31:21;5.20;99.90
12370;DHT22;6249;52.128;9.986;2022-11-13T01:34:42;5.10;99.90
12370;DHT22;6249;52.128;9.986;2022-11-13T01:38:02;5.10;99.90
12370;DHT22;6249;52.128;9.986;2022-11-13T01:41:31;5.00;99.90
12370;DHT22;6249;52.128;9.986;2022-11-13T01:44:55;4.90;99.90
12370;DHT22;6249;52.128;9.986;2022-11-13T01:48:16;5.00;99.90
12370;DHT22;6249;52.128;9.986;2022-11-13T01:51:56;4.80;99.90
12370;DHT22;6249;52.128;9.986;2022-11-13T01:55:19;4.70;99.90
12370;DHT22;6249;52.128;9.986;2022-11-13T01:58:42;4.70;99.90
12370;DHT22;6249;52.128;9.986;2022-11-13T02:02:03;4.60;99.90
12370;DHT22;6249;52.128;9.986;2022-11-13T02:05:24;4.60;99.90
12370;DHT22;6249;52.128;9.986;2022-11-13T02:08:45;4.50;99.90
12370;DHT22;6249;52.128;9.986;2022-11-13T02:12:11;4.50;99.90
12370;DHT22;6249;52.128;9.986;2022-11-13T02:15:33;4.60;99.90
12370;DHT22;6249;52.128;9.986;2022-11-13T02:18:54;4.60;99.90
12370;DHT22;6249;52.128;9.986;2022-11-13T02:22:17;4.50;99.90
12370;DHT22;6249;52.128;9.986;2022-11-13T02:25:40;4.50;99.90
12370;DHT22;6249;52.128;9.986;2022-11-13T02:29:02;4.40;99.90
12370;DHT22;6249;52.128;9.986;2022-11-13T02:32:24;4.40;99.90
12370;DHT22;6249;52.128;9.986;2022-11-13T02:35:45;4.40;99.90
12370;DHT22;6249;52.128;9.986;2022-11-13T02:39:08;4.30;99.90
12370;DHT22;6249;52.128;9.986;2022-11-13T02:42:34;4.30;99.90
12370;DHT22;6249;52.128;9.986;2022-11-13T02:45:57;4.20;99.90
12370;DHT22;6249;52.128;9.986;2022-11-13T02:49:18;4.20;99.90
12370;DHT22;6249;52.128;9.986;2022-11-13T02:52:41;4.20;99.90
12370;DHT22;6249;52.128;9.986;2022-11-13T02:56:04;4.20;99.90
12370;DHT22;6249;52.128;9.986;2022-11-13T02:59:32;4.20;99.90
12370;DHT22;6249;52.128;9.986;2022-11-13T03:02:53;4.20;99.90
12370;DHT22;6249;52.128;9.986;2022-11-13T03:06:15;4.10;99.90
12370;DHT22;6249;52.128;9.986;2022-11-13T03:09:35;4.00;99.90
12370;DHT22;6249;52.128;9.986;2022-11-13T03:12:58;4.00;99.90
12370;DHT22;6249;52.128;9.986;2022-11-13T03:16:26;4.10;99.90
12370;DHT22;6249;52.128;9.986;2022-11-13T03:19:49;4.00;99.90
12370;DHT22;6249;52.128;9.986;2022-11-13T03:23:12;3.90;99.90
12370;DHT22;6249;52.128;9.986;2022-11-13T03:26:35;3.80;99.90
12370;DHT22;6249;52.128;9.986;2022-11-13T03:29:55;3.80;99.90
12370;DHT22;6249;52.128;9.986;2022-11-13T03:33:16;3.80;99.90
12370;DHT22;6249;52.128;9.986;2022-11-13T03:36:36;3.80;99.90
12370;DHT22;6249;52.128;9.986;2022-11-13T03:39:57;3.80;99.90
12370;DHT22;6249;52.128;9.986;2022-11-13T03:43:18;3.70;99.90
12370;DHT22;6249;52.128;9.986;2022-11-13T03:46:38;3.70;99.90
12370;DHT22;6249;52.128;9.986;2022-11-13T03:49:59;3.70;99.90
12370;DHT22;6249;52.128;9.986;2022-11-13T03:53:22;3.80;99.90
12370;DHT22;6249;52.128;9.986;2022-11-13T03:56:43;3.80;99.90
12370;DHT22;6249;52.128;9.986;2022-11-13T04:00:04;3.70;99.90
12370;DHT22;6249;52.128;9.986;2022-11-13T04:03:25;3.70;99.90
12370;DHT22;6249;52.128;9.986;2022-11-13T04:06:48;3.70;99.90
12370;DHT22;6249;52.128;9.986;2022-11-13T04:10:14;3.60;99.90
12370;DHT22;6249;52.128;9.986;2022-11-13T04:13:37;3.60;99.90
12370;DHT22;6249;52.128;9.986;2022-11-13T04:16:58;3.60;99.90
12370;DHT22;6249;52.128;9.986;2022-11-13T04:20:23;4.40;99.90
12370;DHT22;6249;52.128;9.986;2022-11-13T04:23:46;3.60;99.90
12370;DHT22;6249;52.128;9.986;2022-11-13T04:27:07;3.60;99.90
12370;DHT22;6249;52.128;9.986;2022-11-13T04:30:30;3.60;99.90
12370;DHT22;6249;52.128;9.986;2022-11-13T04:33:53;3.60;99.90
12370;DHT22;6249;52.128;9.986;2022-11-13T04:37:13;3.50;99.90
12370;DHT22;6249;52.128;9.986;2022-11-13T04:40:34;3.40;99.90
12370;DHT22;6249;52.128;9.986;2022-11-13T04:44:00;3.30;99.90
12370;DHT22;6249;52.128;9.986;2022-11-13T04:47:21;3.30;99.90
12370;DHT22;6249;52.128;9.986;2022-11-13T04:50:42;3.30;99.90
12370;DHT22;6249;52.128;9.986;2022-11-13T04:54:05;3.20;99.90
12370;DHT22;6249;52.128;9.986;2022-11-13T04:57:25;3.20;99.90
12370;DHT22;6249;52.128;9.986;2022-11-13T05:00:46;3.10;99.90
12370;DHT22;6249;52.128;9.986;2022-11-13T05:04:11;3.10;99.90
12370;DHT22;6249;52.128;9.986;2022-11-13T05:07:36;3.20;99.90
12370;DHT22;6249;52.128;9.986;2022-11-13T05:10:59;3.20;99.90
12370;DHT22;6249;52.128;9.986;2022-11-13T05:14:20;3.20;99.90
12370;DHT22;6249;52.128;9.986;2022-11-13T05:17:43;3.20;99.90
12370;DHT22;6249;52.128;9.986;2022-11-13T05:21:08;3.10;99.90
12370;DHT22;6249;52.128;9.986;2022-11-13T05:24:28;3.00;99.90
12370;DHT22;6249;52.128;9.986;2022-11-13T05:27:55;3.00;99.90
12370;DHT22;6249;52.128;9.986;2022-11-13T05:31:16;2.90;99.90
12370;DHT22;6249;52.128;9.986;2022-11-13T05:34:37;2.80;99.90
12370;DHT22;6249;52.128;9.986;2022-11-13T05:38:01;2.80;99.90
12370;DHT22;6249;52.128;9.986;2022-11-13T05:41:22;2.80;99.90
12370;DHT22;6249;52.128;9.986;2022-11-13T05:44:43;2.80;99.90
12370;DHT22;6249;52.128;9.986;2022-11-13T05:48:06;2.70;99.90
12370;DHT22;6249;52.128;9.986;2022-11-13T05:51:28;2.60;99.90
12370;DHT22;6249;52.128;9.986;2022-11-13T05:54:52;2.60;99.90
12370;DHT22;6249;52.128;9.986;2022-11-13T05:58:12;2.60;99.90
12370;DHT22;6249;52.128;9.986;2022-11-13T06:01:36;2.60;99.90
12370;DHT22;6249;52.128;9.986;2022-11-13T06:04:57;2.50;99.90
12370;DHT22;6249;52.128;9.986;2022-11-13T06:08:17;2.50;99.90
12370;DHT22;6249;52.128;9.986;2022-11-13T06:11:40;2.50;99.90
12370;DHT22;6249;52.128;9.986;2022-11-13T06:15:03;2.60;99.90
12370;DHT22;6249;52.128;9.986;2022-11-13T06:18:26;2.40;99.90
12370;DHT22;6249;52.128;9.986;2022-11-13T06:21:49;2.40;99.90
12370;DHT22;6249;52.128;9.986;2022-11-13T06:25:10;2.50;99.90
12370;DHT22;6249;52.128;9.986;2022-11-13T06:28:31;2.30;99.90
12370;DHT22;6249;52.128;9.986;2022-11-13T06:31:52;2.40;99.90
12370;DHT22;6249;52.128;9.986;2022-11-13T06:35:12;2.40;99.90
12370;DHT22;6249;52.128;9.986;2022-11-13T06:38:37;2.40;99.90
12370;DHT22;6249;52.128;9.986;2022-11-13T06:41:58;2.30;99.90
12370;DHT22;6249;52.128;9.986;2022-11-13T06:45:18;2.50;99.90
12370;DHT22;6249;52.128;9.986;2022-11-13T06:48:39;2.30;99.90
12370;DHT22;6249;52.128;9.986;2022-11-13T06:52:00;2.30;99.90
12370;DHT22;6249;52.128;9.986;2022-11-13T06:55:22;2.30;99.90
12370;DHT22;6249;52.128;9.986;2022-11-13T06:58:46;2.40;99.90
12370;DHT22;6249;52.128;9.986;2022-11-13T07:02:08;2.40;99.90
12370;DHT22;6249;52.128;9.986;2022-11-13T07:05:30;2.40;99.90
12370;DHT22;6249;52.128;9.986;2022-11-13T07:08:51;2.40;99.90
12370;DHT22;6249;52.128;9.986;2022-11-13T07:12:11;2.40;99.90
12370;DHT22;6249;52.128;9.986;2022-11-13T07:15:36;2.50;99.90
12370;DHT22;6249;52.128;9.986;2022-11-13T07:18:57;2.50;99.90
12370;DHT22;6249;52.128;9.986;2022-11-13T07:22:20;2.50;99.90
12370;DHT22;6249;52.128;9.986;2022-11-13T07:25:41;2.50;99.90
12370;DHT22;6249;52.128;9.986;2022-11-13T07:29:01;2.50;99.90
12370;DHT22;6249;52.128;9.986;2022-11-13T07:32:22;2.50;99.90
12370;DHT22;6249;52.128;9.986;2022-11-13T07:35:45;2.60;99.90
12370;DHT22;6249;52.128;9.986;2022-11-13T07:39:05;2.60;99.90
12370;DHT22;6249;52.128;9.986;2022-11-13T07:42:29;2.70;99.90
12370;DHT22;6249;52.128;9.986;2022-11-13T07:45:52;2.70;99.90
12370;DHT22;6249;52.128;9.986;2022-11-13T07:49:16;2.80;99.90
12370;DHT22;6249;52.128;9.986;2022-11-13T07:52:39;2.80;99.90
12370;DHT22;6249;52.128;9.986;2022-11-13T07:56:01;3.00;99.90
12370;DHT22;6249;52.128;9.986;2022-11-13T07:59:22;3.10;99.90
12370;DHT22;6249;52.128;9.986;2022-11-13T08:02:42;3.10;99.90
12370;DHT22;6249;52.128;9.986;2022-11-13T08:06:07;3.20;99.90
12370;DHT22;6249;52.128;9.986;2022-11-13T08:09:28;3.40;99.90
12370;DHT22;6249;52.128;9.986;2022-11-13T08:12:57;3.60;99.90
12370;DHT22;6249;52.128;9.986;2022-11-13T08:16:19;3.70;99.90
12370;DHT22;6249;52.128;9.986;2022-11-13T08:19:44;3.90;99.90
12370;DHT22;6249;52.128;9.986;2022-11-13T08:23:05;4.10;99.90
12370;DHT22;6249;52.128;9.986;2022-11-13T08:26:30;4.30;99.90
12370;DHT22;6249;52.128;9.986;2022-11-13T08:29:52;4.50;99.90
12370;DHT22;6249;52.128;9.986;2022-11-13T08:33:13;4.80;99.90
12370;DHT22;6249;52.128;9.986;2022-11-13T08:36:36;5.10;99.90
12370;DHT22;6249;52.128;9.986;2022-11-13T08:39:56;5.40;99.90
12370;DHT22;6249;52.128;9.986;2022-11-13T08:43:17;5.80;99.90
12370;DHT22;6249;52.128;9.986;2022-11-13T08:46:39;6.00;99.90
12370;DHT22;6249;52.128;9.986;2022-11-13T08:50:00;6.40;99.90
12370;DHT22;6249;52.128;9.986;2022-11-13T08:53:24;6.70;99.90
12370;DHT22;6249;52.128;9.986;2022-11-13T08:56:47;7.00;99.90
12370;DHT22;6249;52.128;9.986;2022-11-13T09:00:11;7.40;99.90
12370;DHT22;6249;52.128;9.986;2022-11-13T09:03:34;7.60;99.90
12370;DHT22;6249;52.128;9.986;2022-11-13T09:06:57;7.90;99.90
12370;DHT22;6249;52.128;9.986;2022-11-13T09:10:20;8.10;99.90
12370;DHT22;6249;52.128;9.986;2022-11-13T09:13:43;8.30;99.90
12370;DHT22;6249;52.128;9.986;2022-11-13T09:17:03;8.50;99.90
12370;DHT22;6249;52.128;9.986;2022-11-13T09:20:28;8.90;99.90
12370;DHT22;6249;52.128;9.986;2022-11-13T09:23:51;9.20;99.90
12370;DHT22;6249;52.128;9.986;2022-11-13T09:27:12;9.70;99.90
12370;DHT22;6249;52.128;9.986;2022-11-13T09:30:33;9.90;99.90
12370;DHT22;6249;52.128;9.986;2022-11-13T09:33:59;10.00;99.90
12370;DHT22;6249;52.128;9.986;2022-11-13T09:37:19;10.40;99.90
12370;DHT22;6249;52.128;9.986;2022-11-13T09:41:07;10.80;99.90
12370;DHT22;6249;52.128;9.986;2022-11-13T09:48:00;11.80;99.90
12370;DHT22;6249;52.128;9.986;2022-11-13T09:51:28;12.10;99.90
12370;DHT22;6249;52.128;9.986;2022-11-13T09:54:52;12.30;99.90
12370;DHT22;6249;52.128;9.986;2022-11-13T10:09:28;13.60;99.90
12370;DHT22;6249;52.128;9.986;2022-11-13T10:12:54;14.20;98.70
12370;DHT22;6249;52.128;9.986;2022-11-13T10:23:55;15.00;97.00
12370;DHT22;6249;52.128;9.986;2022-11-13T10:27:16;15.60;96.50
12370;DHT22;6249;52.128;9.986;2022-11-13T10:30:42;15.90;95.90
12370;DHT22;6249;52.128;9.986;2022-11-13T10:34:04;16.10;95.70
12370;DHT22;6249;52.128;9.986;2022-11-13T10:41:15;16.70;94.30
12370;DHT22;6249;52.128;9.986;2022-11-13T10:44:36;17.20;93.50
12370;DHT22;6249;52.128;9.986;2022-11-13T10:47:56;17.50;92.50
12370;DHT22;6249;52.128;9.986;2022-11-13T10:51:34;17.50;92.10
12370;DHT22;6249;52.128;9.986;2022-11-13T10:59:12;18.30;91.40
12370;DHT22;6249;52.128;9.986;2022-11-13T11:02:34;18.80;91.10
12370;DHT22;6249;52.128;9.986;2022-11-13T11:06:00;18.90;90.10
12370;DHT22;6249;52.128;9.986;2022-11-13T11:09:30;19.00;90.10
12370;DHT22;6249;52.128;9.986;2022-11-13T11:13:09;19.30;90.70
12370;DHT22;6249;52.128;9.986;2022-11-13T11:16:33;20.30;91.10
12370;DHT22;6249;52.128;9.986;2022-11-13T11:20:46;21.10;89.60
12370;DHT22;6249;52.128;9.986;2022-11-13T11:27:15;22.10;83.90
12370;DHT22;6249;52.128;9.986;2022-11-13T11:30:49;22.20;83.30
12370;DHT22;6249;52.128;9.986;2022-11-13T11:41:33;23.20;77.10
12370;DHT22;6249;52.128;9.986;2022-11-13T11:48:29;23.00;76.40
12370;DHT22;6249;52.128;9.986;2022-11-13T12:14:08;24.20;74.50
12370;DHT22;6249;52.128;9.986;2022-11-13T12:17:44;25.00;72.50
12370;DHT22;6249;52.128;9.986;2022-11-13T12:35:30;25.70;69.20
12370;DHT22;6249;52.128;9.986;2022-11-13T12:39:03;26.50;66.80
12370;DHT22;6249;52.128;9.986;2022-11-13T12:45:59;26.70;64.40
12370;DHT22;6249;52.128;9.986;2022-11-13T12:49:32;26.80;64.60
12370;DHT22;6249;52.128;9.986;2022-11-13T12:53:10;26.50;63.50
12370;DHT22;6249;52.128;9.986;2022-11-13T12:56:32;26.20;62.60
12370;DHT22;6249;52.128;9.986;2022-11-13T12:59:55;25.40;65.10
12370;DHT22;6249;52.128;9.986;2022-11-13T13:18:11;22.20;72.00
12370;DHT22;6249;52.128;9.986;2022-11-13T13:21:41;21.70;74.20
12370;DHT22;6249;52.128;9.986;2022-11-13T13:25:29;20.90;76.80
12370;DHT22;6249;52.128;9.986;2022-11-13T13:28:59;20.90;77.60
12370;DHT22;6249;52.128;9.986;2022-11-13T13:35:54;21.20;77.50
12370;DHT22;6249;52.128;9.986;2022-11-13T13:46:41;22.40;76.60
12370;DHT22;6249;52.128;9.986;2022-11-13T13:50:04;23.00;74.30
12370;DHT22;6249;52.128;9.986;2022-11-13T13:53:30;23.00;74.40
12370;DHT22;6249;52.128;9.986;2022-11-13T13:56:54;23.50;72.30
12370;DHT22;6249;52.128;9.986;2022-11-13T14:00:17;22.50;74.70
12370;DHT22;6249;52.128;9.986;2022-11-13T14:03:38;21.10;76.90
12370;DHT22;6249;52.128;9.986;2022-11-13T14:07:00;19.80;79.80
12370;DHT22;6249;52.128;9.986;2022-11-13T14:10:23;18.60;84.00
12370;DHT22;6249;52.128;9.986;2022-11-13T14:13:43;17.10;90.00
12370;DHT22;6249;52.128;9.986;2022-11-13T14:17:04;15.90;93.50
12370;DHT22;6249;52.128;9.986;2022-11-13T14:20:26;15.10;96.10
12370;DHT22;6249;52.128;9.986;2022-11-13T14:23:50;14.60;98.10
12370;DHT22;6249;52.128;9.986;2022-11-13T14:27:21;14.20;99.40
12370;DHT22;6249;52.128;9.986;2022-11-13T14:30:42;13.90;99.90
12370;DHT22;6249;52.128;9.986;2022-11-13T14:34:14;13.80;99.90
12370;DHT22;6249;52.128;9.986;2022-11-13T14:37:39;13.70;99.90
12370;DHT22;6249;52.128;9.986;2022-11-13T14:41:04;13.30;99.90
12370;DHT22;6249;52.128;9.986;2022-11-13T14:44:32;13.10;99.90
12370;DHT22;6249;52.128;9.986;2022-11-13T14:48:16;12.60;99.90
12370;DHT22;6249;52.128;9.986;2022-11-13T14:51:38;12.30;99.90
12370;DHT22;6249;52.128;9.986;2022-11-13T14:55:03;12.10;99.90
12370;DHT22;6249;52.128;9.986;2022-11-13T14:58:32;11.90;99.90
12370;DHT22;6249;52.128;9.986;2022-11-13T15:01:54;11.60;99.90
12370;DHT22;6249;52.128;9.986;2022-11-13T15:05:15;11.30;99.90
12370;DHT22;6249;52.128;9.986;2022-11-13T15:08:38;11.10;99.90
12370;DHT22;6249;52.128;9.986;2022-11-13T15:12:03;11.10;99.90
12370;DHT22;6249;52.128;9.986;2022-11-13T15:15:27;10.90;99.90
12370;DHT22;6249;52.128;9.986;2022-11-13T15:18:54;10.70;99.90
12370;DHT22;6249;52.128;9.986;2022-11-13T15:22:17;10.70;99.90
12370;DHT22;6249;52.128;9.986;2022-11-13T15:25:40;10.70;99.90
12370;DHT22;6249;52.128;9.986;2022-11-13T15:29:04;10.70;99.90
12370;DHT22;6249;52.128;9.986;2022-11-13T15:32:28;10.60;99.90
12370;DHT22;6249;52.128;9.986;2022-11-13T15:35:48;10.50;99.90
12370;DHT22;6249;52.128;9.986;2022-11-13T15:39:09;10.50;99.90
12370;DHT22;6249;52.128;9.986;2022-11-13T15:42:34;10.50;99.90
12370;DHT22;6249;52.128;9.986;2022-11-13T15:45:55;10.40;99.90
12370;DHT22;6249;52.128;9.986;2022-11-13T15:49:16;10.20;99.90
12370;DHT22;6249;52.128;9.986;2022-11-13T15:52:40;10.20;99.90
12370;DHT22;6249;52.128;9.986;2022-11-13T15:56:04;10.20;99.90
12370;DHT22;6249;52.128;9.986;2022-11-13T15:59:28;10.10;99.90
12370;DHT22;6249;52.128;9.986;2022-11-13T16:02:54;10.10;99.90
12370;DHT22;6249;52.128;9.986;2022-11-13T16:06:21;10.10;99.90
12370;DHT22;6249;52.128;9.986;2022-11-13T16:09:43;10.10;99.90
12370;DHT22;6249;52.128;9.986;2022-11-13T16:13:04;9.90;99.90
12370;DHT22;6249;52.128;9.986;2022-11-13T16:16:31;9.90;99.90
12370;DHT22;6249;52.128;9.986;2022-11-13T16:19:56;9.80;99.90
12370;DHT22;6249;52.128;9.986;2022-11-13T16:23:17;9.90;99.90
12370;DHT22;6249;52.128;9.986;2022-11-13T16:26:48;9.90;99.90
12370;DHT22;6249;52.128;9.986;2022-11-13T16:33:37;9.90;99.90
12370;DHT22;6249;52.128;9.986;2022-11-13T16:37:00;9.60;99.90
12370;DHT22;6249;52.128;9.986;2022-11-13T16:40:24;9.50;99.90
12370;DHT22;6249;52.128;9.986;2022-11-13T16:43:50;9.50;99.90
12370;DHT22;6249;52.128;9.986;2022-11-13T16:47:22;9.40;99.90
12370;DHT22;6249;52.128;9.986;2022-11-13T16:50:43;9.30;99.90
12370;DHT22;6249;52.128;9.986;2022-11-13T16:54:04;9.40;99.90
12370;DHT22;6249;52.128;9.986;2022-11-13T16:57:26;9.50;99.90
12370;DHT22;6249;52.128;9.986;2022-11-13T17:00:49;9.60;99.90
12370;DHT22;6249;52.128;9.986;2022-11-13T17:04:12;9.40;99.90
12370;DHT22;6249;52.128;9.986;2022-11-13T17:07:34;9.40;99.90
12370;DHT22;6249;52.128;9.986;2022-11-13T17:10:58;9.40;99.90
12370;DHT22;6249;52.128;9.986;2022-11-13T17:14:19;9.30;99.90
12370;DHT22;6249;52.128;9.986;2022-11-13T17:17:42;9.20;99.90
12370;DHT22;6249;52.128;9.986;2022-11-13T17:21:02;9.30;99.90
12370;DHT22;6249;52.128;9.986;2022-11-13T17:24:25;9.40;99.90
12370;DHT22;6249;52.128;9.986;2022-11-13T17:27:46;9.20;99.90
12370;DHT22;6249;52.128;9.986;2022-11-13T17:31:09;9.30;99.90
12370;DHT22;6249;52.128;9.986;2022-11-13T17:34:31;9.40;99.90
12370;DHT22;6249;52.128;9.986;2022-11-13T17:37:52;9.20;99.90
12370;DHT22;6249;52.128;9.986;2022-11-13T17:41:17;9.20;99.90
12370;DHT22;6249;52.128;9.986;2022-11-13T17:44:42;9.10;99.90
12370;DHT22;6249;52.128;9.986;2022-11-13T17:48:03;9.00;99.90
12370;DHT22;6249;52.128;9.986;2022-11-13T17:51:24;8.90;99.90
12370;DHT22;6249;52.128;9.986;2022-11-13T17:54:47;8.80;99.90
12370;DHT22;6249;52.128;9.986;2022-11-13T17:58:08;8.80;99.90
12370;DHT22;6249;52.128;9.986;2022-11-13T18:01:28;9.00;99.90
12370;DHT22;6249;52.128;9.986;2022-11-13T18:04:51;8.90;99.90
12370;DHT22;6249;52.128;9.986;2022-11-13T18:08:13;8.90;99.90
12370;DHT22;6249;52.128;9.986;2022-11-13T18:11:34;8.90;99.90
12370;DHT22;6249;52.128;9.986;2022-11-13T18:14:54;8.90;99.90
12370;DHT22;6249;52.128;9.986;2022-11-13T18:18:15;9.00;99.90
12370;DHT22;6249;52.128;9.986;2022-11-13T18:21:38;8.90;99.90
12370;DHT22;6249;52.128;9.986;2022-11-13T18:24:59;8.80;99.90
12370;DHT22;6249;52.128;9.986;2022-11-13T18:28:22;8.70;99.90
12370;DHT22;6249;52.128;9.986;2022-11-13T18:31:43;8.50;99.90
12370;DHT22;6249;52.128;9.986;2022-11-13T18:35:04;8.60;99.90
12370;DHT22;6249;52.128;9.986;2022-11-13T18:38:25;8.70;99.90
12370;DHT22;6249;52.128;9.986;2022-11-13T18:41:48;8.80;99.90
12370;DHT22;6249;52.128;9.986;2022-11-13T18:45:09;8.70;99.90
12370;DHT22;6249;52.128;9.986;2022-11-13T18:48:33;8.50;99.90
12370;DHT22;6249;52.128;9.986;2022-11-13T18:51:57;8.60;99.90
12370;DHT22;6249;52.128;9.986;2022-11-13T18:55:19;8.40;99.90
12370;DHT22;6249;52.128;9.986;2022-11-13T18:58:41;8.40;99.90
12370;DHT22;6249;52.128;9.986;2022-11-13T19:02:02;8.30;99.90
12370;DHT22;6249;52.128;9.986;2022-11-13T19:05:23;8.40;99.90
12370;DHT22;6249;52.128;9.986;2022-11-13T19:08:46;8.20;99.90
12370;DHT22;6249;52.128;9.986;2022-11-13T19:12:07;8.20;99.90
12370;DHT22;6249;52.128;9.986;2022-11-13T19:15:28;8.20;99.90
12370;DHT22;6249;52.128;9.986;2022-11-13T19:18:53;8.10;99.90
12370;DHT22;6249;52.128;9.986;2022-11-13T19:22:14;8.10;99.90
12370;DHT22;6249;52.128;9.986;2022-11-13T19:25:37;8.00;99.90
12370;DHT22;6249;52.128;9.986;2022-11-13T19:28:58;8.20;99.90
12370;DHT22;6249;52.128;9.986;2022-11-13T19:32:18;8.30;99.90
12370;DHT22;6249;52.128;9.986;2022-11-13T19:35:41;8.20;99.90
12370;DHT22;6249;52.128;9.986;2022-11-13T19:39:04;8.20;99.90
12370;DHT22;6249;52.128;9.986;2022-11-13T19:42:24;8.10;99.90
12370;DHT22;6249;52.128;9.986;2022-11-13T19:45:47;8.10;99.90
12370;DHT22;6249;52.128;9.986;2022-11-13T19:49:08;8.10;99.90
12370;DHT22;6249;52.128;9.986;2022-11-13T19:52:29;8.20;99.90
12370;DHT22;6249;52.128;9.986;2022-11-13T19:55:54;8.30;99.90
12370;DHT22;6249;52.128;9.986;2022-11-13T19:59:15;8.30;99.90
12370;DHT22;6249;52.128;9.986;2022-11-13T20:02:35;8.30;99.90
12370;DHT22;6249;52.128;9.986;2022-11-13T20:05:56;8.20;99.90
12370;DHT22;6249;52.128;9.986;2022-11-13T20:09:20;8.20;99.90
12370;DHT22;6249;52.128;9.986;2022-11-13T20:12:40;8.20;99.90
12370;DHT22;6249;52.128;9.986;2022-11-13T20:16:05;8.30;99.90
12370;DHT22;6249;52.128;9.986;2022-11-13T20:19:31;8.20;99.90
12370;DHT22;6249;52.128;9.986;2022-11-13T20:22:51;8.30;99.90
12370;DHT22;6249;52.128;9.986;2022-11-13T20:26:12;8.30;99.90
12370;DHT22;6249;52.128;9.986;2022-11-13T20:29:40;8.20;99.90
12370;DHT22;6249;52.128;9.986;2022-11-13T20:33:01;8.20;99.90
12370;DHT22;6249;52.128;9.986;2022-11-13T20:36:24;8.20;99.90
12370;DHT22;6249;52.128;9.986;2022-11-13T20:39:45;8.30;99.90
12370;DHT22;6249;52.128;9.986;2022-11-13T20:43:10;8.20;99.90
12370;DHT22;6249;52.128;9.986;2022-11-13T20:46:31;8.30;99.90
12370;DHT22;6249;52.128;9.986;2022-11-13T20:49:54;8.20;99.90
12370;DHT22;6249;52.128;9.986;2022-11-13T20:53:14;8.00;99.90
12370;DHT22;6249;52.128;9.986;2022-11-13T20:56:37;8.00;99.90
12370;DHT22;6249;52.128;9.986;2022-11-13T20:59:58;8.00;99.90
12370;DHT22;6249;52.128;9.986;2022-11-13T21:03:21;7.90;99.90
12370;DHT22;6249;52.128;9.986;2022-11-13T21:06:41;8.00;99.90
12370;DHT22;6249;52.128;9.986;2022-11-13T21:10:02;8.00;99.90
12370;DHT22;6249;52.128;9.986;2022-11-13T21:13:23;8.10;99.90
12370;DHT22;6249;52.128;9.986;2022-11-13T21:16:44;8.10;99.90
12370;DHT22;6249;52.128;9.986;2022-11-13T21:20:05;8.20;99.90
12370;DHT22;6249;52.128;9.986;2022-11-13T21:23:28;8.20;99.90
12370;DHT22;6249;52.128;9.986;2022-11-13T21:26:49;8.10;99.90
12370;DHT22;6249;52.128;9.986;2022-11-13T21:30:10;8.10;99.90
12370;DHT22;6249;52.128;9.986;2022-11-13T21:33:35;8.10;99.90
12370;DHT22;6249;52.128;9.986;2022-11-13T21:36:56;8.10;99.90
12370;DHT22;6249;52.128;9.986;2022-11-13T21:40:17;8.00;99.90
12370;DHT22;6249;52.128;9.986;2022-11-13T21:43:37;8.20;99.90
12370;DHT22;6249;52.128;9.986;2022-11-13T21:47:00;8.10;99.90
12370;DHT22;6249;52.128;9.986;2022-11-13T21:50:23;8.10;99.90
12370;DHT22;6249;52.128;9.986;2022-11-13T21:53:43;8.00;99.90
12370;DHT22;6249;52.128;9.986;2022-11-13T21:57:04;8.00;99.90
12370;DHT22;6249;52.128;9.986;2022-11-13T22:00:27;8.00;99.90
12370;DHT22;6249;52.128;9.986;2022-11-13T22:03:50;7.70;99.90
12370;DHT22;6249;52.128;9.986;2022-11-13T22:07:11;7.60;99.90
12370;DHT22;6249;52.128;9.986;2022-11-13T22:10:32;7.50;99.90
12370;DHT22;6249;52.128;9.986;2022-11-13T22:13:55;7.50;99.90
12370;DHT22;6249;52.128;9.986;2022-11-13T22:17:16;7.50;99.90
12370;DHT22;6249;52.128;9.986;2022-11-13T22:20:39;7.50;99.90
12370;DHT22;6249;52.128;9.986;2022-11-13T22:24:00;7.30;99.90
12370;DHT22;6249;52.128;9.986;2022-11-13T22:27:20;7.30;99.90
12370;DHT22;6249;52.128;9.986;2022-11-13T22:30:44;7.30;99.90
12370;DHT22;6249;52.128;9.986;2022-11-13T22:34:05;7.40;99.90
12370;DHT22;6249;52.128;9.986;2022-11-13T22:37:26;7.50;99.90
12370;DHT22;6249;52.128;9.986;2022-11-13T22:40:49;7.40;99.90
12370;DHT22;6249;52.128;9.986;2022-11-13T22:44:11;7.50;99.90
12370;DHT22;6249;52.128;9.986;2022-11-13T22:47:32;7.40;99.90
12370;DHT22;6249;52.128;9.986;2022-11-13T22:50:53;7.50;99.90
12370;DHT22;6249;52.128;9.986;2022-11-13T22:54:13;7.40;99.90
12370;DHT22;6249;52.128;9.986;2022-11-13T22:57:34;7.40;99.90
12370;DHT22;6249;52.128;9.986;2022-11-13T23:00:54;7.40;99.90
12370;DHT22;6249;52.128;9.986;2022-11-13T23:04:18;7.40;99.90
12370;DHT22;6249;52.128;9.986;2022-11-13T23:07:40;7.40;99.90
12370;DHT22;6249;52.128;9.986;2022-11-13T23:11:01;7.40;99.90
12370;DHT22;6249;52.128;9.986;2022-11-13T23:14:21;7.30;99.90
12370;DHT22;6249;52.128;9.986;2022-11-13T23:17:44;7.20;99.90
12370;DHT22;6249;52.128;9.986;2022-11-13T23:21:06;7.30;99.90
12370;DHT22;6249;52.128;9.986;2022-11-13T23:24:27;7.30;99.90
12370;DHT22;6249;52.128;9.986;2022-11-13T23:27:48;7.40;99.90
12370;DHT22;6249;52.128;9.986;2022-11-13T23:31:11;7.30;99.90
12370;DHT22;6249;52.128;9.986;2022-11-13T23:34:34;7.10;99.90
12370;DHT22;6249;52.128;9.986;2022-11-13T23:37:55;7.00;99.90
12370;DHT22;6249;52.128;9.986;2022-11-13T23:41:18;7.10;99.90
12370;DHT22;6249;52.128;9.986;2022-11-13T23:44:43;7.20;99.90
12370;DHT22;6249;52.128;9.986;2022-11-13T23:48:06;7.10;99.90
12370;DHT22;6249;52.128;9.986;2022-11-13T23:51:26;7.00;99.90